Accueil
METAR-TAF:

METAR-TAF

Aéroports :

Xi'an, Chine

Aéroport international de Xi'an Xianyang

latitude: 34-26N, longitude: 108-45E, altitude: 479 m

Observation

Le bulletin a été fait il y a 13 minutes, à 16:00 UTC
Vent 2 kt de ouest
Température 1°C
Humidité 59%
Pression 1025 hPa
Visibilité: 7000 m

METAR: ZLXY 241600Z 26001MPS 7000 NSC 01/M06 Q1025 NOSIG

Heure: 00:13 (16:13 UTC)

Prévision

Le bulletin a été fait il y a 6 heures et 58 minutes, à 09:15 UTC
Prévision valable du 24 à 12 UTC au 25 à 12 UTC
Vent 6 kt de nord-est
Visibilité: 3000 m
brume sèche

TAF: ZLXY 240915Z 2412/2512 05003MPS 3000 HZ NSC TX16/2508Z TN00/2423Z

Observations et prévisions météorologiques de plus de 4000 aéroports (messages METAR et TAF).

Les stations disponibles sont représentées par des disques jaunes et rouges sur la carte.

Passer la souris dessus pour voir le nom de la station.

Cliquer dessus pour voir les observations et prévisions météorologiques.

Pour changer de carte: cliquez sur les boutons verts avec une croix noire pour zoomer, sur le bouton vert avec un tiret pour effectuer un zoom arrière, ou sur les flèches vertes pour les cartes adjacentes.


METAR-TAF: